createdAt,value
2022-08-02T00:01:18.900Z,18.34
2022-08-02T00:03:45.546Z,18.29
2022-08-02T00:06:12.336Z,18.29
2022-08-02T00:08:38.936Z,18.27
2022-08-02T00:11:05.840Z,18.22
2022-08-02T00:13:32.718Z,18.20
2022-08-02T00:15:59.446Z,18.16
2022-08-02T00:18:26.071Z,18.11
2022-08-02T00:20:52.792Z,18.07
2022-08-02T00:23:19.572Z,17.76
2022-08-02T00:25:54.448Z,17.28
2022-08-02T00:28:23.526Z,17.17
2022-08-02T00:30:55.186Z,17.08
2022-08-02T00:34:27.489Z,17.03
2022-08-02T00:36:08.430Z,17.06
2022-08-02T00:38:35.211Z,17.11
2022-08-02T00:41:01.824Z,17.00
2022-08-02T00:43:28.402Z,17.06
2022-08-02T00:46:02.443Z,17.33
2022-08-02T00:48:30.470Z,17.41
2022-08-02T00:50:57.943Z,16.91
2022-08-02T00:53:24.597Z,16.77
2022-08-02T00:55:51.322Z,16.68
2022-08-02T00:58:19.484Z,16.67
2022-08-02T01:00:46.621Z,16.61
2022-08-02T01:03:13.256Z,16.50
2022-08-02T01:06:10.129Z,16.50
2022-08-02T01:08:29.400Z,16.53
2022-08-02T01:10:58.504Z,16.42
2022-08-02T01:13:25.953Z,16.36
2022-08-02T01:16:04.142Z,16.30
2022-08-02T01:18:40.402Z,16.34
2022-08-02T01:21:34.788Z,16.90
2022-08-02T01:24:26.458Z,17.11
2022-08-02T01:27:23.140Z,17.21
2022-08-02T01:29:53.890Z,17.17
2022-08-02T01:32:26.698Z,17.16
2022-08-02T01:34:59.801Z,17.16
2022-08-02T01:37:38.093Z,16.93
2022-08-02T01:40:09.451Z,16.80
2022-08-02T01:42:38.395Z,16.47
2022-08-02T01:45:07.227Z,16.30
2022-08-02T01:47:38.562Z,16.25
2022-08-02T01:50:07.399Z,16.15
2022-08-02T01:52:37.419Z,16.08
2022-08-02T01:55:09.830Z,16.07
2022-08-02T01:57:54.186Z,16.20
2022-08-02T02:00:23.042Z,16.18
2022-08-02T02:02:52.087Z,16.02
2022-08-02T02:05:22.658Z,15.99
2022-08-02T02:07:56.615Z,16.03
2022-08-02T02:10:30.379Z,15.96
2022-08-02T02:13:03.221Z,15.87
2022-08-02T02:15:35.080Z,15.85
2022-08-02T02:18:12.893Z,15.83
2022-08-02T02:20:42.141Z,15.77
2022-08-02T02:23:08.964Z,15.72
2022-08-02T02:25:41.819Z,15.63
2022-08-02T02:28:24.780Z,15.61
2022-08-02T02:30:58.491Z,15.83
2022-08-02T02:33:29.317Z,15.82
2022-08-02T02:35:58.216Z,15.94
2022-08-02T02:38:28.611Z,15.96
2022-08-02T02:40:57.961Z,15.81
2022-08-02T02:43:27.904Z,15.70
2022-08-02T02:45:56.484Z,15.61
2022-08-02T02:48:23.661Z,15.71
2022-08-02T02:50:50.962Z,15.81
2022-08-02T02:53:19.613Z,15.86
2022-08-02T02:56:02.298Z,15.99
2022-08-02T02:58:31.082Z,16.21
2022-08-02T03:01:16.203Z,16.06
2022-08-02T03:03:44.959Z,15.94
2022-08-02T03:06:14.893Z,15.69
2022-08-02T03:08:42.412Z,15.52
2022-08-02T03:11:09.962Z,15.83
2022-08-02T03:13:37.907Z,16.13
2022-08-02T03:16:04.858Z,16.28
2022-08-02T03:18:36.673Z,16.26
2022-08-02T03:21:09.514Z,16.06
2022-08-02T03:23:36.103Z,15.59
2022-08-02T03:26:02.904Z,15.33
2022-08-02T03:28:29.661Z,15.30
2022-08-02T03:30:56.455Z,15.15
2022-08-02T03:33:24.561Z,15.10
2022-08-02T03:35:52.949Z,15.16
2022-08-02T03:38:22.693Z,15.24
2022-08-02T03:40:56.266Z,15.22
2022-08-02T03:43:24.155Z,15.09
2022-08-02T03:45:57.022Z,14.91
2022-08-02T03:48:34.251Z,14.62
2022-08-02T03:51:02.241Z,14.75
2022-08-02T03:53:29.593Z,14.75
2022-08-02T03:55:56.867Z,14.73
2022-08-02T03:58:24.863Z,14.75
2022-08-02T04:00:57.962Z,14.70
2022-08-02T04:03:25.174Z,14.76
2022-08-02T04:06:03.434Z,14.88
2022-08-02T04:08:35.781Z,14.87
2022-08-02T04:11:23.043Z,15.04
2022-08-02T04:13:49.845Z,15.13
2022-08-02T04:16:22.554Z,15.26
2022-08-02T04:18:56.286Z,15.17
2022-08-02T04:21:26.146Z,15.17
2022-08-02T04:23:53.451Z,15.16
2022-08-02T04:26:26.951Z,15.15
2022-08-02T04:28:55.913Z,15.22
2022-08-02T04:31:22.871Z,15.33
2022-08-02T04:33:50.178Z,15.41
2022-08-02T04:36:31.273Z,15.58
2022-08-02T04:38:58.428Z,15.37
2022-08-02T04:41:37.373Z,15.27
2022-08-02T04:44:08.045Z,15.22
2022-08-02T04:46:36.515Z,15.21
2022-08-02T04:49:03.512Z,15.21
2022-08-02T04:51:38.132Z,15.20
2022-08-02T04:54:09.854Z,15.19
2022-08-02T04:56:38.215Z,15.24
2022-08-02T04:59:05.103Z,15.31
2022-08-02T05:01:32.436Z,15.39
2022-08-02T05:03:59.539Z,15.44
2022-08-02T05:06:26.113Z,15.48
2022-08-02T05:08:53.720Z,15.38
2022-08-02T05:11:36.102Z,15.48
2022-08-02T05:14:04.290Z,15.50
2022-08-02T05:16:32.139Z,15.59
2022-08-02T05:19:00.500Z,15.61
2022-08-02T05:21:28.397Z,15.69
2022-08-02T05:23:55.200Z,15.73
2022-08-02T05:26:21.868Z,15.73
2022-08-02T05:28:48.465Z,15.68
2022-08-02T05:31:15.108Z,15.73
2022-08-02T05:33:41.860Z,15.71
2022-08-02T05:36:09.703Z,15.64
2022-08-02T05:38:37.915Z,15.68
2022-08-02T05:41:05.916Z,15.76
2022-08-02T05:43:32.926Z,15.81
2022-08-02T05:45:59.973Z,15.93
2022-08-02T05:48:31.485Z,15.91
2022-08-02T05:51:10.884Z,15.93
2022-08-02T05:53:45.416Z,15.98
2022-08-02T05:56:43.104Z,16.11
2022-08-02T05:59:26.159Z,16.22
2022-08-02T06:01:57.260Z,16.25
2022-08-02T06:04:36.983Z,16.26
2022-08-02T06:07:10.250Z,16.34
2022-08-02T06:09:39.086Z,16.48
2022-08-02T06:12:09.633Z,16.55
2022-08-02T06:14:37.567Z,16.67
2022-08-02T06:17:07.148Z,16.76
2022-08-02T06:19:50.861Z,17.00
2022-08-02T06:22:42.132Z,17.08
2022-08-02T06:25:11.815Z,17.30
2022-08-02T06:27:54.070Z,17.53
2022-08-02T06:30:20.665Z,17.77
2022-08-02T06:32:51.262Z,17.95
2022-08-02T06:35:18.301Z,18.11
2022-08-02T06:37:55.586Z,18.19
2022-08-02T06:40:35.721Z,18.40
2022-08-02T06:43:20.414Z,18.86
2022-08-02T06:45:47.068Z,19.18
2022-08-02T06:48:13.937Z,19.43
2022-08-02T06:50:42.254Z,19.73
2022-08-02T06:53:10.386Z,20.33
2022-08-02T06:55:44.099Z,20.25
2022-08-02T06:58:11.793Z,20.18
2022-08-02T07:00:38.688Z,19.91
2022-08-02T07:03:06.027Z,20.45
2022-08-02T07:05:32.712Z,20.89
2022-08-02T07:07:59.318Z,21.49
2022-08-02T07:10:25.922Z,22.00
2022-08-02T07:12:52.522Z,22.42
2022-08-02T07:15:19.169Z,21.59
2022-08-02T07:17:45.869Z,22.81
2022-08-02T07:20:13.605Z,22.52
2022-08-02T07:22:40.619Z,22.40
2022-08-02T07:25:08.099Z,23.32
2022-08-02T07:27:35.326Z,23.41
2022-08-02T07:30:02.118Z,23.32
2022-08-02T07:32:30.880Z,23.98
2022-08-02T07:34:58.297Z,24.72
2022-08-02T07:37:54.204Z,24.31
2022-08-02T07:40:20.989Z,24.31
2022-08-02T07:42:49.743Z,24.67
2022-08-02T07:45:16.638Z,24.62
2022-08-02T07:47:44.895Z,24.84
2022-08-02T07:50:13.804Z,24.95
2022-08-02T07:52:41.586Z,25.36
2022-08-02T07:55:09.737Z,25.48
2022-08-02T07:57:37.067Z,26.44
2022-08-02T08:00:06.077Z,26.20
2022-08-02T08:02:39.171Z,25.57
2022-08-02T08:05:07.090Z,26.38
2022-08-02T08:07:34.207Z,26.78
2022-08-02T08:10:01.202Z,26.89
2022-08-02T08:12:28.135Z,26.34
2022-08-02T08:14:54.726Z,26.82
2022-08-02T08:17:21.654Z,27.62
2022-08-02T08:19:50.777Z,27.27
2022-08-02T08:22:20.366Z,27.46
2022-08-02T08:24:48.386Z,25.97
2022-08-02T08:27:15.885Z,27.58
2022-08-02T08:29:43.586Z,27.56
2022-08-02T08:32:16.239Z,27.64
2022-08-02T08:34:45.543Z,28.53
2022-08-02T08:37:16.740Z,28.94
2022-08-02T08:39:57.211Z,29.76
2022-08-02T08:42:27.849Z,30.07
2022-08-02T08:44:56.810Z,30.41
2022-08-02T08:47:24.679Z,30.69
2022-08-02T08:49:55.037Z,29.93
2022-08-02T08:52:25.206Z,30.00
2022-08-02T08:54:52.569Z,30.60
2022-08-02T08:57:20.579Z,29.82
2022-08-02T08:59:47.473Z,30.54
2022-08-02T09:02:19.556Z,30.27
2022-08-02T09:04:54.960Z,30.07
2022-08-02T09:07:25.413Z,31.16
2022-08-02T09:09:55.047Z,30.45
2022-08-02T09:12:22.563Z,30.42
2022-08-02T09:14:50.054Z,30.53
2022-08-02T09:17:17.903Z,31.81
2022-08-02T09:19:45.634Z,30.92
2022-08-02T09:22:14.617Z,30.34
2022-08-02T09:24:45.762Z,29.96
2022-08-02T09:27:15.094Z,30.32
2022-08-02T09:30:12.531Z,29.23
2022-08-02T09:32:43.810Z,30.15
2022-08-02T09:35:11.020Z,29.88
2022-08-02T09:37:37.677Z,29.99
2022-08-02T09:40:06.907Z,30.78
2022-08-02T09:42:34.374Z,30.41
2022-08-02T09:45:02.430Z,30.32
2022-08-02T09:47:30.867Z,31.21
2022-08-02T09:49:58.770Z,30.38
2022-08-02T09:52:37.154Z,30.82
2022-08-02T09:55:11.526Z,31.07
2022-08-02T09:57:39.048Z,31.39
2022-08-02T10:00:15.086Z,31.02
2022-08-02T10:03:11.093Z,31.50
2022-08-02T10:05:56.092Z,31.37
2022-08-02T10:08:33.271Z,30.71
2022-08-02T10:11:00.965Z,30.53
2022-08-02T10:13:34.764Z,31.28
2022-08-02T10:16:06.242Z,31.49
2022-08-02T10:18:41.360Z,31.88
2022-08-02T10:21:16.339Z,32.01
2022-08-02T10:23:44.929Z,32.10
2022-08-02T10:26:18.096Z,31.85
2022-08-02T10:28:49.471Z,31.61
2022-08-02T10:31:26.219Z,31.42
2022-08-02T10:33:55.859Z,31.36
2022-08-02T10:36:27.041Z,31.98
2022-08-02T10:38:55.447Z,32.11
2022-08-02T10:41:48.794Z,31.39
2022-08-02T10:44:24.783Z,31.99
2022-08-02T10:46:52.542Z,32.15
2022-08-02T10:52:09.401Z,32.54
2022-08-02T10:54:41.157Z,32.13
2022-08-02T10:57:19.684Z,31.17
2022-08-02T10:59:46.999Z,30.27
2022-08-02T11:02:14.397Z,30.34
2022-08-02T11:04:41.206Z,30.13
2022-08-02T11:07:16.959Z,31.35
2022-08-02T11:09:48.985Z,31.81
2022-08-02T11:12:18.339Z,31.64
2022-08-02T11:14:59.283Z,31.44
2022-08-02T11:17:28.973Z,32.38
2022-08-02T11:20:10.935Z,33.89
2022-08-02T11:22:38.955Z,32.46
2022-08-02T11:25:23.934Z,32.22
2022-08-02T11:27:58.898Z,32.62
2022-08-02T11:30:27.262Z,32.47
2022-08-02T11:32:59.114Z,32.31
2022-08-02T11:35:37.193Z,32.42
2022-08-02T11:38:18.194Z,33.59
2022-08-02T11:40:46.189Z,32.85
2022-08-02T11:43:23.844Z,31.93
2022-08-02T11:45:52.559Z,32.33
2022-08-02T11:48:37.286Z,33.17
2022-08-02T11:51:14.777Z,31.80
2022-08-02T11:53:59.263Z,31.74
2022-08-02T11:56:30.892Z,31.60
2022-08-02T11:59:05.843Z,32.67
2022-08-02T12:01:36.844Z,32.72
2022-08-02T12:04:18.586Z,32.10
2022-08-02T12:06:55.996Z,31.48
2022-08-02T12:09:23.048Z,31.51
2022-08-02T12:11:51.125Z,32.44
2022-08-02T12:14:18.496Z,32.86
2022-08-02T12:17:04.057Z,32.49
2022-08-02T12:19:30.928Z,32.58
2022-08-02T12:22:17.702Z,33.05
2022-08-02T12:24:53.645Z,32.47
2022-08-02T12:27:34.456Z,32.23
2022-08-02T12:30:13.751Z,32.47
2022-08-02T12:32:41.273Z,33.01
2022-08-02T12:35:13.383Z,32.00
2022-08-02T12:37:42.748Z,33.13
2022-08-02T12:40:32.937Z,33.04
2022-08-02T12:43:01.366Z,32.66
2022-08-02T12:45:40.124Z,32.73
2022-08-02T12:48:08.281Z,33.92
2022-08-02T12:50:37.631Z,32.77
2022-08-02T12:53:16.060Z,32.84
2022-08-02T12:56:02.106Z,34.25
2022-08-02T12:58:31.340Z,34.70
2022-08-02T13:04:39.195Z,33.35
2022-08-02T13:07:06.249Z,33.98
2022-08-02T13:09:41.378Z,33.01
2022-08-02T13:12:08.586Z,33.98
2022-08-02T13:14:40.365Z,34.15
2022-08-02T13:17:09.035Z,33.98
2022-08-02T13:19:36.960Z,33.77
2022-08-02T13:22:04.355Z,33.03
2022-08-02T13:24:40.547Z,33.23
2022-08-02T13:27:20.988Z,33.40
2022-08-02T13:29:48.903Z,34.89
2022-08-02T13:32:17.054Z,33.59
2022-08-02T13:34:44.006Z,34.00
2022-08-02T13:37:10.876Z,32.75
2022-08-02T13:39:37.655Z,32.17
2022-08-02T13:42:05.658Z,33.47
2022-08-02T13:44:33.560Z,33.35
2022-08-02T13:47:01.735Z,33.13
2022-08-02T13:49:51.091Z,33.13
2022-08-02T13:52:15.814Z,32.71
2022-08-02T13:54:42.751Z,32.68
2022-08-02T13:57:09.388Z,32.95
2022-08-02T13:59:57.078Z,32.96
2022-08-02T14:02:22.950Z,33.26
2022-08-02T14:04:49.565Z,32.71
2022-08-02T14:07:16.246Z,33.50
2022-08-02T14:09:43.761Z,33.49
2022-08-02T14:12:11.379Z,33.74
2022-08-02T14:14:38.604Z,33.73
2022-08-02T14:17:05.820Z,33.46
2022-08-02T14:19:32.403Z,33.61
2022-08-02T14:22:11.373Z,33.38
2022-08-02T14:24:39.643Z,32.87
2022-08-02T14:27:06.309Z,31.70
2022-08-02T14:29:32.905Z,31.88
2022-08-02T14:31:59.543Z,33.31
2022-08-02T14:34:26.153Z,34.02
2022-08-02T14:36:54.003Z,33.46
2022-08-02T14:39:21.261Z,33.55
2022-08-02T14:41:58.888Z,33.11
2022-08-02T14:44:28.493Z,32.71
2022-08-02T14:46:55.574Z,32.73
2022-08-02T14:49:25.060Z,33.13
2022-08-02T14:51:54.050Z,33.39
2022-08-02T14:54:20.805Z,32.62
2022-08-02T14:56:56.045Z,31.82
2022-08-02T14:59:22.810Z,31.37
2022-08-02T15:01:49.615Z,32.19
2022-08-02T15:04:16.376Z,32.37
2022-08-02T15:06:43.036Z,32.06
2022-08-02T15:09:09.766Z,31.89
2022-08-02T15:11:48.034Z,31.97
2022-08-02T15:14:17.123Z,32.37
2022-08-02T15:16:59.373Z,32.17
2022-08-02T15:19:52.965Z,31.51
2022-08-02T15:22:16.836Z,32.10
2022-08-02T15:24:45.685Z,31.47
2022-08-02T15:27:14.549Z,31.77
2022-08-02T15:29:42.765Z,31.38
2022-08-02T15:32:09.737Z,32.18
2022-08-02T15:34:36.683Z,32.09
2022-08-02T15:37:03.621Z,32.26
2022-08-02T15:39:30.251Z,31.94
2022-08-02T15:41:57.085Z,32.00
2022-08-02T15:44:24.898Z,31.67
2022-08-02T15:46:51.956Z,31.91
2022-08-02T15:49:20.752Z,31.71
2022-08-02T15:51:47.405Z,31.61
2022-08-02T15:54:13.958Z,31.54
2022-08-02T15:56:40.581Z,31.84
2022-08-02T15:59:07.245Z,32.12
2022-08-02T16:01:37.944Z,32.13
2022-08-02T16:04:07.107Z,32.00
2022-08-02T16:06:35.171Z,31.67
2022-08-02T16:09:02.607Z,31.56
2022-08-02T16:11:29.488Z,31.88
2022-08-02T16:13:56.779Z,31.69
2022-08-02T16:16:28.457Z,31.78
2022-08-02T16:18:55.745Z,32.09
2022-08-02T16:21:23.624Z,31.88
2022-08-02T16:24:01.759Z,31.87
2022-08-02T16:26:31.645Z,31.58
2022-08-02T16:28:59.828Z,31.43
2022-08-02T16:31:26.556Z,31.37
2022-08-02T16:33:56.695Z,31.65
2022-08-02T16:36:25.487Z,31.26
2022-08-02T16:38:55.468Z,30.96
2022-08-02T16:41:23.139Z,30.34
2022-08-02T16:44:10.840Z,30.67
2022-08-02T16:46:37.465Z,30.94
2022-08-02T16:49:04.554Z,31.01
2022-08-02T16:51:31.227Z,30.99
2022-08-02T16:54:00.662Z,30.92
2022-08-02T16:56:30.563Z,30.99
2022-08-02T16:58:59.585Z,30.75
2022-08-02T17:02:01.938Z,30.65
2022-08-02T17:04:15.542Z,30.46
2022-08-02T17:06:47.289Z,30.53
2022-08-02T17:10:03.804Z,30.42
2022-08-02T17:12:05.775Z,30.21
2022-08-02T17:14:36.742Z,30.26
2022-08-02T17:17:21.524Z,30.22
2022-08-02T17:19:48.131Z,30.24
2022-08-02T17:22:14.996Z,30.04
2022-08-02T17:24:44.387Z,29.86
2022-08-02T17:27:17.165Z,29.92
2022-08-02T17:29:43.853Z,29.81
2022-08-02T17:32:12.984Z,29.69
2022-08-02T17:34:40.079Z,29.57
2022-08-02T17:37:15.734Z,29.56
2022-08-02T17:39:44.167Z,29.43
2022-08-02T17:42:19.563Z,29.31
2022-08-02T17:44:49.049Z,29.23
2022-08-02T17:47:16.340Z,28.99
2022-08-02T17:49:48.130Z,28.71
2022-08-02T17:52:50.743Z,28.57
2022-08-02T17:55:04.164Z,28.43
2022-08-02T17:57:55.843Z,28.27
2022-08-02T18:00:18.004Z,28.17
2022-08-02T18:02:52.808Z,28.09
2022-08-02T18:05:40.191Z,27.94
2022-08-02T18:08:11.213Z,27.80
2022-08-02T18:10:40.880Z,27.52
2022-08-02T18:13:07.726Z,27.64
2022-08-02T18:15:34.670Z,27.31
2022-08-02T18:18:01.675Z,27.34
2022-08-02T18:20:28.308Z,27.36
2022-08-02T18:22:55.570Z,27.29
2022-08-02T18:25:37.760Z,27.04
2022-08-02T18:28:11.598Z,26.89
2022-08-02T18:30:39.043Z,27.07
2022-08-02T18:34:00.268Z,27.09
2022-08-02T18:35:55.290Z,27.06
2022-08-02T18:38:23.230Z,26.80
2022-08-02T18:40:50.814Z,26.64
2022-08-02T18:43:18.802Z,26.48
2022-08-02T18:48:38.538Z,26.31
2022-08-02T18:51:06.879Z,26.20
2022-08-02T18:53:41.225Z,26.32
2022-08-02T18:56:19.857Z,26.25
2022-08-02T18:58:55.511Z,26.24
2022-08-02T19:01:32.124Z,26.37
2022-08-02T19:04:09.778Z,26.20
2022-08-02T19:06:37.450Z,26.24
2022-08-02T19:09:11.212Z,26.09
2022-08-02T19:11:51.266Z,25.72
2022-08-02T19:14:27.299Z,25.78
2022-08-02T19:16:55.595Z,25.69
2022-08-02T19:19:22.610Z,25.45
2022-08-02T19:22:26.521Z,25.47
2022-08-02T19:24:37.107Z,25.43
2022-08-02T19:27:13.422Z,25.26
2022-08-02T19:29:42.815Z,25.19
2022-08-02T19:32:42.694Z,25.14
2022-08-02T19:35:19.421Z,25.21
2022-08-02T19:37:51.359Z,25.28
2022-08-02T19:40:24.194Z,25.20
2022-08-02T19:44:20.681Z,25.12
2022-08-02T19:45:50.045Z,24.98
2022-08-02T19:48:23.866Z,25.00
2022-08-02T19:50:55.813Z,24.74
2022-08-02T19:53:24.246Z,24.49
2022-08-02T19:56:01.511Z,24.27
2022-08-02T19:58:30.872Z,24.05
2022-08-02T20:00:59.317Z,23.89
2022-08-02T20:03:51.036Z,23.75
2022-08-02T20:06:13.840Z,23.66
2022-08-02T20:08:43.106Z,23.61
2022-08-02T20:11:19.946Z,23.52
2022-08-02T20:13:50.203Z,23.52
2022-08-02T20:19:05.111Z,23.39
2022-08-02T20:21:36.245Z,23.42
2022-08-02T20:24:07.734Z,23.24
2022-08-02T20:26:35.236Z,23.19
2022-08-02T20:29:03.988Z,23.20
2022-08-02T20:31:30.810Z,23.31
2022-08-02T20:33:57.703Z,23.33
2022-08-02T20:36:28.489Z,23.22
2022-08-02T20:38:55.651Z,23.15
2022-08-02T20:41:23.498Z,23.06
2022-08-02T20:44:04.038Z,23.00
2022-08-02T20:46:30.634Z,22.90
2022-08-02T20:48:59.535Z,22.97
2022-08-02T20:51:33.840Z,23.02
2022-08-02T20:54:00.561Z,23.01
2022-08-02T20:56:29.412Z,22.98
2022-08-02T20:59:03.690Z,22.96
2022-08-02T21:01:37.066Z,22.95
2022-08-02T21:04:04.173Z,22.85
2022-08-02T21:06:31.147Z,22.71
2022-08-02T21:08:58.723Z,22.47
2022-08-02T21:11:33.540Z,22.33
2022-08-02T21:14:12.122Z,22.22
2022-08-02T21:16:38.919Z,22.22
2022-08-02T21:19:08.042Z,22.21
2022-08-02T21:21:36.387Z,22.04
2022-08-02T21:24:03.276Z,21.98
2022-08-02T21:26:31.279Z,21.88
2022-08-02T21:29:04.471Z,21.78
2022-08-02T21:31:35.825Z,21.64
2022-08-02T21:34:21.531Z,21.55
2022-08-02T21:36:52.554Z,21.46
2022-08-02T21:42:06.974Z,21.50
2022-08-02T21:44:35.465Z,21.54
2022-08-02T21:47:02.140Z,21.59
2022-08-02T21:50:09.692Z,21.70
2022-08-02T21:52:15.535Z,21.94
2022-08-02T21:54:45.551Z,21.89
2022-08-02T21:57:15.434Z,21.70
2022-08-02T21:59:45.374Z,21.63
2022-08-02T22:02:13.088Z,21.49
2022-08-02T22:04:41.633Z,21.47
2022-08-02T22:07:16.151Z,21.38
2022-08-02T22:09:45.448Z,21.45
2022-08-02T22:12:16.965Z,21.48
2022-08-02T22:14:49.673Z,21.26
2022-08-02T22:17:51.867Z,21.19
2022-08-02T22:20:09.390Z,20.98
2022-08-02T22:22:39.348Z,21.02
2022-08-02T22:25:06.407Z,20.87
2022-08-02T22:28:36.191Z,20.89
2022-08-02T22:30:23.591Z,20.87
2022-08-02T22:33:14.951Z,20.79
2022-08-02T22:35:42.373Z,20.81
2022-08-02T22:38:17.389Z,20.76
2022-08-02T22:40:49.439Z,20.51
2022-08-02T22:43:22.424Z,20.53
2022-08-02T22:45:49.375Z,20.48
2022-08-02T22:48:16.262Z,20.50
2022-08-02T22:50:43.135Z,20.44
2022-08-02T22:53:09.733Z,20.36
2022-08-02T22:55:41.403Z,20.30
2022-08-02T22:58:09.112Z,20.18
2022-08-02T22:58:57.897Z,26.35
2022-08-02T22:59:03.237Z,21.43
2022-08-02T22:59:05.254Z,23.48
2022-08-02T23:00:35.687Z,20.11
2022-08-02T23:03:02.986Z,20.05
2022-08-02T23:05:33.448Z,20.05
2022-08-02T23:08:00.160Z,20.01
2022-08-02T23:10:27.017Z,20.03
2022-08-02T23:12:56.555Z,20.27
2022-08-02T23:15:23.603Z,20.19
2022-08-02T23:18:08.684Z,20.15
2022-08-02T23:20:35.440Z,20.06
2022-08-02T23:23:02.178Z,19.89
2022-08-02T23:25:28.792Z,19.79
2022-08-02T23:27:55.382Z,19.71
2022-08-02T23:30:22.094Z,19.62
2022-08-02T23:32:48.684Z,19.65
2022-08-02T23:35:17.101Z,19.63
2022-08-02T23:37:59.297Z,19.53
2022-08-02T23:40:40.375Z,19.58
2022-08-02T23:43:13.402Z,19.64
2022-08-02T23:45:41.482Z,19.60
2022-08-02T23:48:08.050Z,19.55
2022-08-02T23:50:34.655Z,19.64
2022-08-02T23:53:01.235Z,19.68
2022-08-02T23:55:27.877Z,19.65
2022-08-02T23:57:54.441Z,19.73
